This is the latest recevied weather packets stored in our database for station/object W9PEM-13. If no packets are shown the sender has not sent any weather packets the latest 1 day(s).
| Time | Temp. | Humidity | Pressure | Rain* | Wind** | Luminosity | Snow |
|---|---|---|---|---|---|---|---|
| 1778017138 | 12.78° C | 34% | 977.5 hPa | 0 mm | 3.13 m/s, 260° | 497 W/m² | - |
| 1778017086 | 12.78° C | 34% | 977.5 hPa | 0 mm | 3.13 m/s, 260° | 497 W/m² | - |
| 1778016813 | 12.78° C | 34% | 977.5 hPa | 0 mm | 3.13 m/s, 260° | 497 W/m² | - |
| 1778016409 | 12.78° C | 35% | 977.5 hPa | 0 mm | 1.79 m/s, 192° | 412 W/m² | - |
| 1778016213 | 12.78° C | 35% | 977.5 hPa | 0 mm | 1.79 m/s, 192° | 412 W/m² | - |
| 1778015775 | 13.33° C | 34% | 977.6 hPa | 0 mm | 1.79 m/s, 319° | 456 W/m² | - |
| 1778015613 | 13.33° C | 34% | 977.6 hPa | 0 mm | 1.79 m/s, 319° | 456 W/m² | - |
| 1778015081 | 12.78° C | 35% | 977.6 hPa | 0 mm | 4.02 m/s, 274° | 366 W/m² | - |
| 1778014544 | 13.33° C | 36% | 977.6 hPa | 0 mm | 2.68 m/s, 279° | 378 W/m² | - |
| 1778014413 | 13.33° C | 36% | 977.6 hPa | 0 mm | 2.68 m/s, 279° | 378 W/m² | - |
| 1778013856 | 12.78° C | 36% | 977.7 hPa | 0 mm | 3.58 m/s, 299° | 416 W/m² | - |
| 1778013813 | 12.78° C | 36% | 977.7 hPa | 0 mm | 3.58 m/s, 299° | 416 W/m² | - |
| 1778013426 | 12.78° C | 36% | 977.8 hPa | 0 mm | 3.13 m/s, 253° | 453 W/m² | - |
| 1778013369 | 12.78° C | 36% | 977.8 hPa | 0 mm | 3.13 m/s, 253° | 453 W/m² | - |
| 1778013213 | 12.78° C | 36% | 977.8 hPa | 0 mm | 3.13 m/s, 253° | 453 W/m² | - |
| 1778012869 | 13.33° C | 36% | 978 hPa | 0 mm | 4.92 m/s, 280° | 715 W/m² | - |
| 1778012671 | 13.33° C | 36% | 978 hPa | 0 mm | 4.92 m/s, 280° | 715 W/m² | - |
| 1778012612 | 13.33° C | 36% | 978 hPa | 0 mm | 4.92 m/s, 280° | 715 W/m² | - |
| 1778012338 | 13.33° C | 37% | 977.8 hPa | 0 mm | 1.79 m/s, 259° | 594 W/m² | - |
| 1778012012 | 13.33° C | 37% | 977.8 hPa | 0 mm | 1.79 m/s, 259° | 594 W/m² | - |
| 1778011479 | 13.33° C | 37% | 978 hPa | 0 mm | 4.47 m/s, 270° | 758 W/m² | - |
| 1778011412 | 13.33° C | 37% | 978 hPa | 0 mm | 4.47 m/s, 270° | 758 W/m² | - |
| 1778011125 | 13.33° C | 35% | 977.9 hPa | 0 mm | 2.68 m/s, 345° | 755 W/m² | - |
| 1778010813 | 13.33° C | 35% | 977.9 hPa | 0 mm | 2.68 m/s, 345° | 755 W/m² | - |
| 1778010475 | 13.33° C | 36% | 977.9 hPa | 0 mm | 2.24 m/s, 270° | 631 W/m² | - |
* Rain latest hour (hover to see other rain measurements)
** Current wind speed in m/s (hover to see current wind gust speed)